sensor_id;sensor_type;location;lat;lon;timestamp;P1;durP1;ratioP1;P2;durP2;ratioP2
61572;SDS011;47465;43.094;12.434;2023-04-25T00:02:09;10.90;;;3.85;;
61572;SDS011;47465;43.094;12.434;2023-04-25T00:04:36;11.90;;;2.90;;
61572;SDS011;47465;43.094;12.434;2023-04-25T00:07:03;12.07;;;3.20;;
61572;SDS011;47465;43.094;12.434;2023-04-25T00:09:29;10.13;;;3.03;;
61572;SDS011;47465;43.094;12.434;2023-04-25T00:11:55;9.75;;;3.05;;
61572;SDS011;47465;43.094;12.434;2023-04-25T00:14:21;8.95;;;2.58;;
61572;SDS011;47465;43.094;12.434;2023-04-25T00:16:48;9.90;;;2.90;;
61572;SDS011;47465;43.094;12.434;2023-04-25T00:19:14;8.45;;;2.90;;
61572;SDS011;47465;43.094;12.434;2023-04-25T00:21:41;11.85;;;3.33;;
61572;SDS011;47465;43.094;12.434;2023-04-25T00:24:07;10.68;;;2.78;;
61572;SDS011;47465;43.094;12.434;2023-04-25T00:26:33;6.53;;;2.60;;
61572;SDS011;47465;43.094;12.434;2023-04-25T00:29:00;7.22;;;2.88;;
61572;SDS011;47465;43.094;12.434;2023-04-25T00:31:26;9.60;;;2.85;;
61572;SDS011;47465;43.094;12.434;2023-04-25T00:33:52;7.72;;;2.63;;
61572;SDS011;47465;43.094;12.434;2023-04-25T00:36:18;7.05;;;2.85;;
61572;SDS011;47465;43.094;12.434;2023-04-25T00:38:45;6.75;;;2.90;;
61572;SDS011;47465;43.094;12.434;2023-04-25T00:41:11;12.63;;;2.88;;
61572;SDS011;47465;43.094;12.434;2023-04-25T00:43:37;7.90;;;2.70;;
61572;SDS011;47465;43.094;12.434;2023-04-25T00:46:05;8.05;;;2.67;;
61572;SDS011;47465;43.094;12.434;2023-04-25T00:48:31;6.90;;;2.47;;
61572;SDS011;47465;43.094;12.434;2023-04-25T00:50:57;8.30;;;2.97;;
61572;SDS011;47465;43.094;12.434;2023-04-25T00:53:25;7.88;;;2.83;;
61572;SDS011;47465;43.094;12.434;2023-04-25T00:55:54;6.80;;;2.42;;
61572;SDS011;47465;43.094;12.434;2023-04-25T00:58:21;4.68;;;2.20;;
61572;SDS011;47465;43.094;12.434;2023-04-25T01:00:47;11.88;;;2.90;;
61572;SDS011;47465;43.094;12.434;2023-04-25T01:03:15;8.50;;;2.65;;
61572;SDS011;47465;43.094;12.434;2023-04-25T01:05:42;7.22;;;2.65;;
61572;SDS011;47465;43.094;12.434;2023-04-25T01:08:09;7.70;;;2.70;;
61572;SDS011;47465;43.094;12.434;2023-04-25T01:10:35;7.32;;;2.58;;
61572;SDS011;47465;43.094;12.434;2023-04-25T01:13:03;6.72;;;2.75;;
61572;SDS011;47465;43.094;12.434;2023-04-25T01:15:29;6.25;;;2.60;;
61572;SDS011;47465;43.094;12.434;2023-04-25T01:17:54;7.47;;;3.10;;
61572;SDS011;47465;43.094;12.434;2023-04-25T01:20:21;8.43;;;2.60;;
61572;SDS011;47465;43.094;12.434;2023-04-25T01:22:49;6.10;;;2.40;;
61572;SDS011;47465;43.094;12.434;2023-04-25T01:25:16;6.30;;;2.20;;
61572;SDS011;47465;43.094;12.434;2023-04-25T01:27:42;6.65;;;2.65;;
61572;SDS011;47465;43.094;12.434;2023-04-25T01:30:08;6.78;;;2.38;;
61572;SDS011;47465;43.094;12.434;2023-04-25T01:32:35;4.93;;;2.80;;
61572;SDS011;47465;43.094;12.434;2023-04-25T01:35:05;6.63;;;2.30;;
61572;SDS011;47465;43.094;12.434;2023-04-25T01:37:34;4.50;;;2.30;;
61572;SDS011;47465;43.094;12.434;2023-04-25T01:40:02;4.70;;;2.42;;
61572;SDS011;47465;43.094;12.434;2023-04-25T01:42:30;7.85;;;2.80;;
61572;SDS011;47465;43.094;12.434;2023-04-25T01:44:56;8.65;;;3.08;;
61572;SDS011;47465;43.094;12.434;2023-04-25T01:47:22;8.35;;;2.75;;
61572;SDS011;47465;43.094;12.434;2023-04-25T01:49:48;7.97;;;2.60;;
61572;SDS011;47465;43.094;12.434;2023-04-25T01:52:14;5.13;;;2.67;;
61572;SDS011;47465;43.094;12.434;2023-04-25T01:54:41;4.43;;;2.72;;
61572;SDS011;47465;43.094;12.434;2023-04-25T01:57:11;6.35;;;2.97;;
61572;SDS011;47465;43.094;12.434;2023-04-25T01:59:37;9.70;;;3.40;;
61572;SDS011;47465;43.094;12.434;2023-04-25T02:02:03;5.10;;;3.05;;
61572;SDS011;47465;43.094;12.434;2023-04-25T02:04:29;5.50;;;2.65;;
61572;SDS011;47465;43.094;12.434;2023-04-25T02:06:55;7.60;;;2.95;;
61572;SDS011;47465;43.094;12.434;2023-04-25T02:09:21;6.50;;;3.10;;
61572;SDS011;47465;43.094;12.434;2023-04-25T02:11:47;8.63;;;2.80;;
61572;SDS011;47465;43.094;12.434;2023-04-25T02:14:14;8.68;;;3.00;;
61572;SDS011;47465;43.094;12.434;2023-04-25T02:16:40;7.20;;;3.33;;
61572;SDS011;47465;43.094;12.434;2023-04-25T02:19:08;6.95;;;3.05;;
61572;SDS011;47465;43.094;12.434;2023-04-25T02:21:35;7.97;;;2.65;;
61572;SDS011;47465;43.094;12.434;2023-04-25T02:24:01;5.72;;;2.70;;
61572;SDS011;47465;43.094;12.434;2023-04-25T02:26:28;8.60;;;3.08;;
61572;SDS011;47465;43.094;12.434;2023-04-25T02:28:54;7.05;;;3.00;;
61572;SDS011;47465;43.094;12.434;2023-04-25T02:31:21;9.43;;;3.33;;
61572;SDS011;47465;43.094;12.434;2023-04-25T02:33:47;9.65;;;3.03;;
61572;SDS011;47465;43.094;12.434;2023-04-25T02:36:13;6.30;;;2.90;;
61572;SDS011;47465;43.094;12.434;2023-04-25T02:38:40;7.38;;;2.92;;
61572;SDS011;47465;43.094;12.434;2023-04-25T02:41:06;6.13;;;2.70;;
61572;SDS011;47465;43.094;12.434;2023-04-25T02:43:32;6.07;;;3.08;;
61572;SDS011;47465;43.094;12.434;2023-04-25T02:45:57;7.50;;;3.05;;
61572;SDS011;47465;43.094;12.434;2023-04-25T02:48:25;8.60;;;3.10;;
61572;SDS011;47465;43.094;12.434;2023-04-25T02:50:51;7.95;;;3.22;;
61572;SDS011;47465;43.094;12.434;2023-04-25T02:53:17;7.05;;;2.88;;
61572;SDS011;47465;43.094;12.434;2023-04-25T02:55:42;6.28;;;3.30;;
61572;SDS011;47465;43.094;12.434;2023-04-25T02:58:08;7.07;;;2.83;;
61572;SDS011;47465;43.094;12.434;2023-04-25T03:00:35;8.00;;;3.28;;
61572;SDS011;47465;43.094;12.434;2023-04-25T03:03:01;5.75;;;2.45;;
61572;SDS011;47465;43.094;12.434;2023-04-25T03:05:28;8.65;;;3.13;;
61572;SDS011;47465;43.094;12.434;2023-04-25T03:07:54;6.95;;;3.05;;
61572;SDS011;47465;43.094;12.434;2023-04-25T03:10:20;6.72;;;2.67;;
61572;SDS011;47465;43.094;12.434;2023-04-25T03:12:46;8.77;;;3.13;;
61572;SDS011;47465;43.094;12.434;2023-04-25T03:15:11;6.40;;;3.00;;
61572;SDS011;47465;43.094;12.434;2023-04-25T03:17:37;8.95;;;3.20;;
61572;SDS011;47465;43.094;12.434;2023-04-25T03:20:04;6.40;;;2.80;;
61572;SDS011;47465;43.094;12.434;2023-04-25T03:22:32;8.88;;;3.10;;
61572;SDS011;47465;43.094;12.434;2023-04-25T03:24:58;10.05;;;3.08;;
61572;SDS011;47465;43.094;12.434;2023-04-25T03:27:23;6.75;;;2.97;;
61572;SDS011;47465;43.094;12.434;2023-04-25T03:29:49;5.70;;;2.80;;
61572;SDS011;47465;43.094;12.434;2023-04-25T03:32:15;7.78;;;3.20;;
61572;SDS011;47465;43.094;12.434;2023-04-25T03:34:41;5.15;;;2.45;;
61572;SDS011;47465;43.094;12.434;2023-04-25T03:37:07;10.38;;;3.25;;
61572;SDS011;47465;43.094;12.434;2023-04-25T03:39:34;7.13;;;2.72;;
61572;SDS011;47465;43.094;12.434;2023-04-25T03:42:00;5.85;;;2.83;;
61572;SDS011;47465;43.094;12.434;2023-04-25T03:44:28;6.10;;;3.00;;
61572;SDS011;47465;43.094;12.434;2023-04-25T03:46:53;10.40;;;3.13;;
61572;SDS011;47465;43.094;12.434;2023-04-25T03:49:19;7.95;;;2.95;;
61572;SDS011;47465;43.094;12.434;2023-04-25T03:51:45;6.97;;;2.90;;
61572;SDS011;47465;43.094;12.434;2023-04-25T03:54:11;9.70;;;3.13;;
61572;SDS011;47465;43.094;12.434;2023-04-25T03:56:38;7.40;;;3.25;;
61572;SDS011;47465;43.094;12.434;2023-04-25T03:59:04;8.90;;;3.30;;
61572;SDS011;47465;43.094;12.434;2023-04-25T04:01:30;8.60;;;3.35;;
61572;SDS011;47465;43.094;12.434;2023-04-25T04:03:56;8.20;;;3.35;;
61572;SDS011;47465;43.094;12.434;2023-04-25T04:06:22;7.68;;;2.72;;
61572;SDS011;47465;43.094;12.434;2023-04-25T04:08:48;8.18;;;3.30;;
61572;SDS011;47465;43.094;12.434;2023-04-25T04:11:14;8.60;;;2.97;;
61572;SDS011;47465;43.094;12.434;2023-04-25T04:13:41;7.75;;;3.10;;
61572;SDS011;47465;43.094;12.434;2023-04-25T04:16:07;6.57;;;2.85;;
61572;SDS011;47465;43.094;12.434;2023-04-25T04:18:33;8.65;;;3.45;;
61572;SDS011;47465;43.094;12.434;2023-04-25T04:20:59;11.18;;;3.40;;
61572;SDS011;47465;43.094;12.434;2023-04-25T04:23:25;10.48;;;3.20;;
61572;SDS011;47465;43.094;12.434;2023-04-25T04:25:52;9.65;;;3.45;;
61572;SDS011;47465;43.094;12.434;2023-04-25T04:28:19;6.68;;;3.00;;
61572;SDS011;47465;43.094;12.434;2023-04-25T04:30:47;14.25;;;3.53;;
61572;SDS011;47465;43.094;12.434;2023-04-25T04:33:13;8.85;;;3.40;;
61572;SDS011;47465;43.094;12.434;2023-04-25T04:35:40;9.95;;;3.90;;
61572;SDS011;47465;43.094;12.434;2023-04-25T04:38:06;14.40;;;3.90;;
61572;SDS011;47465;43.094;12.434;2023-04-25T04:40:32;7.45;;;3.20;;
61572;SDS011;47465;43.094;12.434;2023-04-25T04:42:58;10.80;;;3.33;;
61572;SDS011;47465;43.094;12.434;2023-04-25T04:45:24;9.00;;;3.20;;
61572;SDS011;47465;43.094;12.434;2023-04-25T04:47:51;7.47;;;3.47;;
61572;SDS011;47465;43.094;12.434;2023-04-25T04:50:17;4.63;;;3.30;;
61572;SDS011;47465;43.094;12.434;2023-04-25T04:52:43;8.02;;;3.20;;
61572;SDS011;47465;43.094;12.434;2023-04-25T04:55:09;9.25;;;3.83;;
61572;SDS011;47465;43.094;12.434;2023-04-25T04:57:35;8.85;;;3.95;;
61572;SDS011;47465;43.094;12.434;2023-04-25T05:00:02;8.80;;;3.75;;
61572;SDS011;47465;43.094;12.434;2023-04-25T05:02:30;7.97;;;3.72;;
61572;SDS011;47465;43.094;12.434;2023-04-25T05:04:57;8.98;;;3.72;;
61572;SDS011;47465;43.094;12.434;2023-04-25T05:07:23;7.13;;;3.22;;
61572;SDS011;47465;43.094;12.434;2023-04-25T05:09:49;7.07;;;3.38;;
61572;SDS011;47465;43.094;12.434;2023-04-25T05:12:15;9.60;;;3.50;;
61572;SDS011;47465;43.094;12.434;2023-04-25T05:14:41;8.55;;;3.33;;
61572;SDS011;47465;43.094;12.434;2023-04-25T05:17:06;11.90;;;3.67;;
61572;SDS011;47465;43.094;12.434;2023-04-25T05:19:33;6.95;;;4.00;;
61572;SDS011;47465;43.094;12.434;2023-04-25T05:22:02;8.93;;;5.25;;
61572;SDS011;47465;43.094;12.434;2023-04-25T05:24:28;9.30;;;3.65;;
61572;SDS011;47465;43.094;12.434;2023-04-25T05:26:55;8.98;;;3.78;;
61572;SDS011;47465;43.094;12.434;2023-04-25T05:29:21;6.22;;;3.10;;
61572;SDS011;47465;43.094;12.434;2023-04-25T05:31:47;7.35;;;2.72;;
61572;SDS011;47465;43.094;12.434;2023-04-25T05:34:13;7.38;;;2.97;;
61572;SDS011;47465;43.094;12.434;2023-04-25T05:36:39;9.10;;;3.38;;
61572;SDS011;47465;43.094;12.434;2023-04-25T05:39:06;8.85;;;3.28;;
61572;SDS011;47465;43.094;12.434;2023-04-25T05:41:33;6.80;;;3.13;;
61572;SDS011;47465;43.094;12.434;2023-04-25T05:43:59;9.60;;;3.47;;
61572;SDS011;47465;43.094;12.434;2023-04-25T05:46:25;7.90;;;3.17;;
61572;SDS011;47465;43.094;12.434;2023-04-25T05:48:50;7.45;;;2.85;;
61572;SDS011;47465;43.094;12.434;2023-04-25T05:51:16;8.60;;;3.35;;
61572;SDS011;47465;43.094;12.434;2023-04-25T05:53:43;8.75;;;3.50;;
61572;SDS011;47465;43.094;12.434;2023-04-25T05:56:11;9.98;;;4.38;;
61572;SDS011;47465;43.094;12.434;2023-04-25T05:58:36;10.07;;;4.40;;
61572;SDS011;47465;43.094;12.434;2023-04-25T06:01:02;8.75;;;3.72;;
61572;SDS011;47465;43.094;12.434;2023-04-25T06:03:28;7.70;;;3.60;;
61572;SDS011;47465;43.094;12.434;2023-04-25T06:05:55;11.63;;;3.80;;
61572;SDS011;47465;43.094;12.434;2023-04-25T06:08:21;12.02;;;3.65;;
61572;SDS011;47465;43.094;12.434;2023-04-25T06:10:47;10.68;;;3.75;;
61572;SDS011;47465;43.094;12.434;2023-04-25T06:13:14;11.85;;;3.35;;
61572;SDS011;47465;43.094;12.434;2023-04-25T06:15:40;8.98;;;3.40;;
61572;SDS011;47465;43.094;12.434;2023-04-25T06:18:06;10.25;;;3.40;;
61572;SDS011;47465;43.094;12.434;2023-04-25T06:20:32;6.00;;;2.95;;
61572;SDS011;47465;43.094;12.434;2023-04-25T06:22:58;7.43;;;2.97;;
61572;SDS011;47465;43.094;12.434;2023-04-25T06:25:24;8.10;;;3.03;;
61572;SDS011;47465;43.094;12.434;2023-04-25T06:27:50;6.60;;;3.13;;
61572;SDS011;47465;43.094;12.434;2023-04-25T06:30:17;6.07;;;2.72;;
61572;SDS011;47465;43.094;12.434;2023-04-25T06:32:47;8.45;;;2.90;;
61572;SDS011;47465;43.094;12.434;2023-04-25T06:35:13;7.38;;;3.33;;
61572;SDS011;47465;43.094;12.434;2023-04-25T06:37:39;7.28;;;3.22;;
61572;SDS011;47465;43.094;12.434;2023-04-25T06:40:06;8.98;;;4.32;;
61572;SDS011;47465;43.094;12.434;2023-04-25T06:42:32;9.45;;;3.38;;
61572;SDS011;47465;43.094;12.434;2023-04-25T06:44:58;8.65;;;3.35;;
61572;SDS011;47465;43.094;12.434;2023-04-25T06:47:26;9.93;;;3.38;;
61572;SDS011;47465;43.094;12.434;2023-04-25T06:49:51;10.63;;;3.17;;
61572;SDS011;47465;43.094;12.434;2023-04-25T06:52:17;8.00;;;3.20;;
61572;SDS011;47465;43.094;12.434;2023-04-25T06:54:43;10.25;;;3.70;;
61572;SDS011;47465;43.094;12.434;2023-04-25T06:57:09;11.95;;;3.83;;
61572;SDS011;47465;43.094;12.434;2023-04-25T06:59:35;8.82;;;3.33;;
61572;SDS011;47465;43.094;12.434;2023-04-25T07:02:01;14.50;;;3.80;;
61572;SDS011;47465;43.094;12.434;2023-04-25T07:04:29;8.43;;;3.33;;
61572;SDS011;47465;43.094;12.434;2023-04-25T07:06:55;13.75;;;3.90;;
61572;SDS011;47465;43.094;12.434;2023-04-25T07:09:21;11.40;;;3.97;;
61572;SDS011;47465;43.094;12.434;2023-04-25T07:11:47;13.18;;;4.45;;
61572;SDS011;47465;43.094;12.434;2023-04-25T07:14:13;12.43;;;5.00;;
61572;SDS011;47465;43.094;12.434;2023-04-25T07:16:40;11.90;;;4.30;;
61572;SDS011;47465;43.094;12.434;2023-04-25T07:19:07;10.77;;;4.30;;
61572;SDS011;47465;43.094;12.434;2023-04-25T07:21:34;12.55;;;3.85;;
61572;SDS011;47465;43.094;12.434;2023-04-25T07:24:01;16.52;;;4.78;;
61572;SDS011;47465;43.094;12.434;2023-04-25T07:26:27;11.18;;;3.95;;
61572;SDS011;47465;43.094;12.434;2023-04-25T07:28:53;14.88;;;4.32;;
61572;SDS011;47465;43.094;12.434;2023-04-25T07:31:19;14.10;;;4.80;;
61572;SDS011;47465;43.094;12.434;2023-04-25T07:33:46;13.85;;;4.35;;
61572;SDS011;47465;43.094;12.434;2023-04-25T07:36:12;13.35;;;4.20;;
61572;SDS011;47465;43.094;12.434;2023-04-25T07:38:41;9.45;;;4.32;;
61572;SDS011;47465;43.094;12.434;2023-04-25T07:41:07;12.45;;;4.47;;
61572;SDS011;47465;43.094;12.434;2023-04-25T07:43:33;9.75;;;4.15;;
61572;SDS011;47465;43.094;12.434;2023-04-25T07:45:59;13.07;;;4.07;;
61572;SDS011;47465;43.094;12.434;2023-04-25T07:48:25;14.60;;;4.50;;
61572;SDS011;47465;43.094;12.434;2023-04-25T07:50:51;14.07;;;5.25;;
61572;SDS011;47465;43.094;12.434;2023-04-25T07:53:16;11.68;;;4.60;;
61572;SDS011;47465;43.094;12.434;2023-04-25T07:55:44;11.60;;;4.80;;
61572;SDS011;47465;43.094;12.434;2023-04-25T07:58:11;10.80;;;4.78;;
61572;SDS011;47465;43.094;12.434;2023-04-25T08:00:37;12.85;;;4.40;;
61572;SDS011;47465;43.094;12.434;2023-04-25T08:03:03;10.10;;;4.45;;
61572;SDS011;47465;43.094;12.434;2023-04-25T08:05:29;12.65;;;4.28;;
61572;SDS011;47465;43.094;12.434;2023-04-25T08:07:54;12.55;;;4.45;;
61572;SDS011;47465;43.094;12.434;2023-04-25T08:10:22;9.60;;;4.28;;
61572;SDS011;47465;43.094;12.434;2023-04-25T08:12:49;10.10;;;4.38;;
61572;SDS011;47465;43.094;12.434;2023-04-25T08:15:15;13.85;;;4.20;;
61572;SDS011;47465;43.094;12.434;2023-04-25T08:17:41;17.40;;;5.50;;
61572;SDS011;47465;43.094;12.434;2023-04-25T08:20:09;14.75;;;4.00;;
61572;SDS011;47465;43.094;12.434;2023-04-25T08:22:36;13.75;;;4.60;;
61572;SDS011;47465;43.094;12.434;2023-04-25T08:25:02;11.50;;;4.95;;
61572;SDS011;47465;43.094;12.434;2023-04-25T08:27:28;14.15;;;5.18;;
61572;SDS011;47465;43.094;12.434;2023-04-25T08:29:55;13.10;;;4.90;;
61572;SDS011;47465;43.094;12.434;2023-04-25T08:32:21;12.95;;;5.00;;
61572;SDS011;47465;43.094;12.434;2023-04-25T08:34:47;11.02;;;4.40;;
61572;SDS011;47465;43.094;12.434;2023-04-25T08:37:13;12.52;;;3.90;;
61572;SDS011;47465;43.094;12.434;2023-04-25T08:39:39;10.80;;;4.35;;
61572;SDS011;47465;43.094;12.434;2023-04-25T08:42:06;11.25;;;3.67;;
61572;SDS011;47465;43.094;12.434;2023-04-25T08:44:33;11.63;;;4.00;;
61572;SDS011;47465;43.094;12.434;2023-04-25T08:47:02;11.70;;;3.50;;
61572;SDS011;47465;43.094;12.434;2023-04-25T08:49:30;12.27;;;3.80;;
61572;SDS011;47465;43.094;12.434;2023-04-25T08:51:59;11.57;;;3.80;;
61572;SDS011;47465;43.094;12.434;2023-04-25T08:54:25;12.93;;;4.05;;
61572;SDS011;47465;43.094;12.434;2023-04-25T08:56:54;8.93;;;3.90;;
61572;SDS011;47465;43.094;12.434;2023-04-25T08:59:22;10.13;;;3.83;;
61572;SDS011;47465;43.094;12.434;2023-04-25T09:01:49;12.52;;;3.80;;
61572;SDS011;47465;43.094;12.434;2023-04-25T09:04:16;7.55;;;3.50;;
61572;SDS011;47465;43.094;12.434;2023-04-25T09:06:43;15.27;;;4.53;;
61572;SDS011;47465;43.094;12.434;2023-04-25T09:09:09;11.57;;;4.22;;
61572;SDS011;47465;43.094;12.434;2023-04-25T09:11:36;9.60;;;3.60;;
61572;SDS011;47465;43.094;12.434;2023-04-25T09:14:12;10.88;;;3.35;;
61572;SDS011;47465;43.094;12.434;2023-04-25T09:19:34;12.27;;;3.75;;
61572;SDS011;47465;43.094;12.434;2023-04-25T09:22:03;12.50;;;3.60;;
61572;SDS011;47465;43.094;12.434;2023-04-25T09:24:33;19.95;;;4.38;;
61572;SDS011;47465;43.094;12.434;2023-04-25T09:27:02;13.02;;;4.38;;
61572;SDS011;47465;43.094;12.434;2023-04-25T09:29:29;11.43;;;5.03;;
61572;SDS011;47465;43.094;12.434;2023-04-25T09:32:16;14.88;;;4.75;;
61572;SDS011;47465;43.094;12.434;2023-04-25T09:34:45;13.43;;;5.65;;
61572;SDS011;47465;43.094;12.434;2023-04-25T09:37:16;9.63;;;3.70;;
61572;SDS011;47465;43.094;12.434;2023-04-25T09:39:44;16.38;;;4.43;;
61572;SDS011;47465;43.094;12.434;2023-04-25T09:42:11;17.05;;;4.95;;
61572;SDS011;47465;43.094;12.434;2023-04-25T09:44:37;14.05;;;4.47;;
61572;SDS011;47465;43.094;12.434;2023-04-25T09:47:09;11.32;;;4.20;;
61572;SDS011;47465;43.094;12.434;2023-04-25T09:49:38;11.50;;;4.30;;
61572;SDS011;47465;43.094;12.434;2023-04-25T09:52:08;14.25;;;4.25;;
61572;SDS011;47465;43.094;12.434;2023-04-25T09:54:34;11.88;;;4.25;;
61572;SDS011;47465;43.094;12.434;2023-04-25T09:57:01;9.77;;;4.05;;
61572;SDS011;47465;43.094;12.434;2023-04-25T09:59:36;10.18;;;4.50;;
61572;SDS011;47465;43.094;12.434;2023-04-25T10:02:04;15.25;;;4.78;;
61572;SDS011;47465;43.094;12.434;2023-04-25T10:04:33;14.18;;;4.30;;
61572;SDS011;47465;43.094;12.434;2023-04-25T10:07:00;12.10;;;3.90;;
61572;SDS011;47465;43.094;12.434;2023-04-25T10:09:28;11.98;;;4.75;;
61572;SDS011;47465;43.094;12.434;2023-04-25T10:11:59;8.30;;;3.55;;
61572;SDS011;47465;43.094;12.434;2023-04-25T10:14:25;9.25;;;3.30;;
61572;SDS011;47465;43.094;12.434;2023-04-25T10:16:51;10.00;;;3.85;;
61572;SDS011;47465;43.094;12.434;2023-04-25T10:19:19;11.65;;;4.07;;
61572;SDS011;47465;43.094;12.434;2023-04-25T10:21:50;14.05;;;4.20;;
61572;SDS011;47465;43.094;12.434;2023-04-25T10:24:18;10.50;;;3.80;;
61572;SDS011;47465;43.094;12.434;2023-04-25T10:26:47;12.18;;;4.70;;
61572;SDS011;47465;43.094;12.434;2023-04-25T10:31:47;11.23;;;4.40;;
61572;SDS011;47465;43.094;12.434;2023-04-25T10:34:13;11.30;;;3.90;;
61572;SDS011;47465;43.094;12.434;2023-04-25T10:36:38;12.18;;;4.63;;
61572;SDS011;47465;43.094;12.434;2023-04-25T10:39:05;10.95;;;4.30;;
61572;SDS011;47465;43.094;12.434;2023-04-25T10:41:32;11.45;;;4.18;;
61572;SDS011;47465;43.094;12.434;2023-04-25T10:44:14;13.05;;;4.10;;
61572;SDS011;47465;43.094;12.434;2023-04-25T10:46:40;9.23;;;3.63;;
61572;SDS011;47465;43.094;12.434;2023-04-25T10:49:06;14.02;;;4.93;;
61572;SDS011;47465;43.094;12.434;2023-04-25T10:51:35;9.13;;;3.90;;
61572;SDS011;47465;43.094;12.434;2023-04-25T10:54:02;11.40;;;4.30;;
61572;SDS011;47465;43.094;12.434;2023-04-25T10:56:30;9.60;;;3.65;;
61572;SDS011;47465;43.094;12.434;2023-04-25T10:59:05;10.43;;;4.05;;
61572;SDS011;47465;43.094;12.434;2023-04-25T11:01:37;14.20;;;4.70;;
61572;SDS011;47465;43.094;12.434;2023-04-25T11:04:05;10.50;;;4.25;;
61572;SDS011;47465;43.094;12.434;2023-04-25T11:06:33;11.95;;;5.05;;
61572;SDS011;47465;43.094;12.434;2023-04-25T11:09:12;10.38;;;3.75;;
61572;SDS011;47465;43.094;12.434;2023-04-25T11:11:38;13.02;;;4.47;;
61572;SDS011;47465;43.094;12.434;2023-04-25T11:14:06;7.43;;;3.22;;
61572;SDS011;47465;43.094;12.434;2023-04-25T11:16:32;6.72;;;3.00;;
61572;SDS011;47465;43.094;12.434;2023-04-25T11:18:58;9.00;;;3.25;;
61572;SDS011;47465;43.094;12.434;2023-04-25T11:21:25;7.03;;;3.20;;
61572;SDS011;47465;43.094;12.434;2023-04-25T11:23:53;6.90;;;3.08;;
61572;SDS011;47465;43.094;12.434;2023-04-25T11:26:22;8.93;;;3.30;;
61572;SDS011;47465;43.094;12.434;2023-04-25T11:28:49;12.70;;;4.18;;
61572;SDS011;47465;43.094;12.434;2023-04-25T11:31:18;8.43;;;3.70;;
61572;SDS011;47465;43.094;12.434;2023-04-25T11:33:46;9.27;;;3.83;;
61572;SDS011;47465;43.094;12.434;2023-04-25T11:36:12;11.70;;;4.28;;
61572;SDS011;47465;43.094;12.434;2023-04-25T11:38:38;9.80;;;4.30;;
61572;SDS011;47465;43.094;12.434;2023-04-25T11:41:05;12.50;;;4.20;;
61572;SDS011;47465;43.094;12.434;2023-04-25T11:43:31;9.48;;;4.60;;
61572;SDS011;47465;43.094;12.434;2023-04-25T11:45:57;9.68;;;4.78;;
61572;SDS011;47465;43.094;12.434;2023-04-25T11:48:25;10.20;;;4.55;;
61572;SDS011;47465;43.094;12.434;2023-04-25T11:50:51;9.25;;;3.85;;
61572;SDS011;47465;43.094;12.434;2023-04-25T11:53:17;9.00;;;4.80;;
61572;SDS011;47465;43.094;12.434;2023-04-25T11:55:43;7.43;;;4.03;;
61572;SDS011;47465;43.094;12.434;2023-04-25T11:58:09;8.98;;;4.15;;
61572;SDS011;47465;43.094;12.434;2023-04-25T12:00:35;9.63;;;4.03;;
61572;SDS011;47465;43.094;12.434;2023-04-25T12:03:01;10.73;;;4.22;;
61572;SDS011;47465;43.094;12.434;2023-04-25T12:05:30;7.47;;;3.75;;
61572;SDS011;47465;43.094;12.434;2023-04-25T12:07:58;10.10;;;3.95;;
61572;SDS011;47465;43.094;12.434;2023-04-25T12:10:36;9.77;;;3.67;;
61572;SDS011;47465;43.094;12.434;2023-04-25T12:13:17;8.32;;;3.60;;
61572;SDS011;47465;43.094;12.434;2023-04-25T12:15:44;10.65;;;4.13;;
61572;SDS011;47465;43.094;12.434;2023-04-25T12:18:10;10.02;;;3.63;;
61572;SDS011;47465;43.094;12.434;2023-04-25T12:20:37;10.50;;;4.55;;
61572;SDS011;47465;43.094;12.434;2023-04-25T12:23:05;6.13;;;3.40;;
61572;SDS011;47465;43.094;12.434;2023-04-25T12:25:36;9.77;;;3.53;;
61572;SDS011;47465;43.094;12.434;2023-04-25T12:28:10;13.68;;;3.92;;
61572;SDS011;47465;43.094;12.434;2023-04-25T12:30:53;9.95;;;3.60;;
61572;SDS011;47465;43.094;12.434;2023-04-25T12:33:20;10.55;;;3.63;;
61572;SDS011;47465;43.094;12.434;2023-04-25T12:35:48;9.50;;;3.88;;
61572;SDS011;47465;43.094;12.434;2023-04-25T12:38:20;10.60;;;3.72;;
61572;SDS011;47465;43.094;12.434;2023-04-25T12:40:47;10.55;;;3.85;;
61572;SDS011;47465;43.094;12.434;2023-04-25T12:43:12;9.10;;;3.50;;
61572;SDS011;47465;43.094;12.434;2023-04-25T12:45:38;9.48;;;3.17;;
61572;SDS011;47465;43.094;12.434;2023-04-25T12:48:05;6.85;;;3.22;;
61572;SDS011;47465;43.094;12.434;2023-04-25T12:50:31;9.23;;;3.45;;
61572;SDS011;47465;43.094;12.434;2023-04-25T12:52:58;8.13;;;3.03;;
61572;SDS011;47465;43.094;12.434;2023-04-25T12:55:25;9.47;;;3.03;;
61572;SDS011;47465;43.094;12.434;2023-04-25T12:57:51;7.32;;;3.25;;
61572;SDS011;47465;43.094;12.434;2023-04-25T13:00:18;7.47;;;2.85;;
61572;SDS011;47465;43.094;12.434;2023-04-25T13:02:45;9.13;;;3.05;;
61572;SDS011;47465;43.094;12.434;2023-04-25T13:05:12;7.30;;;2.92;;
61572;SDS011;47465;43.094;12.434;2023-04-25T13:07:38;8.45;;;3.00;;
61572;SDS011;47465;43.094;12.434;2023-04-25T13:10:06;7.57;;;3.42;;
61572;SDS011;47465;43.094;12.434;2023-04-25T13:12:33;9.27;;;2.90;;
61572;SDS011;47465;43.094;12.434;2023-04-25T13:14:59;6.63;;;3.00;;
61572;SDS011;47465;43.094;12.434;2023-04-25T13:17:25;6.82;;;2.55;;
61572;SDS011;47465;43.094;12.434;2023-04-25T13:19:51;9.02;;;3.42;;
61572;SDS011;47465;43.094;12.434;2023-04-25T13:22:17;7.95;;;3.08;;
61572;SDS011;47465;43.094;12.434;2023-04-25T13:24:45;8.00;;;3.58;;
61572;SDS011;47465;43.094;12.434;2023-04-25T13:27:12;13.23;;;3.78;;
61572;SDS011;47465;43.094;12.434;2023-04-25T13:29:38;7.57;;;3.25;;
61572;SDS011;47465;43.094;12.434;2023-04-25T13:32:05;4.03;;;2.13;;
61572;SDS011;47465;43.094;12.434;2023-04-25T13:34:32;4.30;;;2.03;;
61572;SDS011;47465;43.094;12.434;2023-04-25T13:36:58;9.15;;;4.35;;
61572;SDS011;47465;43.094;12.434;2023-04-25T13:39:24;6.28;;;2.70;;
61572;SDS011;47465;43.094;12.434;2023-04-25T13:41:50;5.30;;;2.40;;
61572;SDS011;47465;43.094;12.434;2023-04-25T13:44:17;5.10;;;2.40;;
61572;SDS011;47465;43.094;12.434;2023-04-25T13:46:43;6.35;;;2.38;;
61572;SDS011;47465;43.094;12.434;2023-04-25T13:49:09;4.78;;;2.33;;
61572;SDS011;47465;43.094;12.434;2023-04-25T13:51:35;6.47;;;2.85;;
61572;SDS011;47465;43.094;12.434;2023-04-25T13:54:01;6.45;;;2.70;;
61572;SDS011;47465;43.094;12.434;2023-04-25T13:56:27;8.10;;;2.70;;
61572;SDS011;47465;43.094;12.434;2023-04-25T13:58:53;7.80;;;2.53;;
61572;SDS011;47465;43.094;12.434;2023-04-25T14:01:21;4.90;;;2.25;;
61572;SDS011;47465;43.094;12.434;2023-04-25T14:03:47;6.20;;;2.60;;
61572;SDS011;47465;43.094;12.434;2023-04-25T14:06:13;7.25;;;2.40;;
61572;SDS011;47465;43.094;12.434;2023-04-25T14:08:42;5.45;;;2.58;;
61572;SDS011;47465;43.094;12.434;2023-04-25T14:11:08;8.05;;;2.58;;
61572;SDS011;47465;43.094;12.434;2023-04-25T14:13:33;8.43;;;2.30;;
61572;SDS011;47465;43.094;12.434;2023-04-25T14:15:59;6.15;;;2.25;;
61572;SDS011;47465;43.094;12.434;2023-04-25T14:18:27;5.78;;;2.58;;
61572;SDS011;47465;43.094;12.434;2023-04-25T14:20:53;7.20;;;2.80;;
61572;SDS011;47465;43.094;12.434;2023-04-25T14:23:19;4.70;;;2.20;;
61572;SDS011;47465;43.094;12.434;2023-04-25T14:25:45;9.02;;;2.20;;
61572;SDS011;47465;43.094;12.434;2023-04-25T14:28:11;5.57;;;2.58;;
61572;SDS011;47465;43.094;12.434;2023-04-25T14:30:37;6.20;;;2.50;;
61572;SDS011;47465;43.094;12.434;2023-04-25T14:33:03;6.90;;;2.20;;
61572;SDS011;47465;43.094;12.434;2023-04-25T14:35:30;5.60;;;2.70;;